Time;durP1;ratioP1;P1;durP2;ratioP2;P2;SDS_P1;SDS_P2;PMS_P1;PMS_P2;Temp;Humidity;BMP_temperature;BMP_pressure;BME280_temperature;BME280_humidity;BME280_pressure;Samples;Min_cycle;Max_cycle;Signal;HPM_P1;HPM_P2
2021/07/19 00:02:08;;;;;;;19.37;13.03;;;;;;;22.07;96.78;98809.65;1697029;82;21115;-70
2021/07/19 00:04:40;;;;;;;27.02;14.20;;;;;;;22.06;96.82;98816.44;1700788;83;20988;-70
2021/07/19 00:07:08;;;;;;;22.73;13.45;;;;;;;22.05;96.92;98814.86;1680633;84;21041;-70
2021/07/19 00:09:34;;;;;;;24.70;12.95;;;;;;;22.03;97.02;98810.28;1708585;83;21489;-70
2021/07/19 00:12:05;;;;;;;25.57;13.53;;;;;;;22.03;97.67;98816.66;1688808;82;21078;-70
2021/07/19 00:14:33;;;;;;;20.97;13.58;;;;;;;22.05;97.07;98813.45;1696867;83;21588;-69
2021/07/19 00:17:01;;;;;;;24.27;13.85;;;;;;;22.02;96.94;98819.87;1700368;83;21003;-70
2021/07/19 00:19:27;;;;;;;31.20;13.43;;;;;;;22.00;97.14;98818.05;1693944;83;21094;-70
2021/07/19 00:21:55;;;;;;;24.75;13.55;;;;;;;21.98;97.00;98820.46;1699306;82;20975;-69
2021/07/19 00:24:22;;;;;;;25.82;14.68;;;;;;;21.93;96.82;98811.14;1703782;83;20894;-70
2021/07/19 00:26:50;;;;;;;25.02;15.03;;;;;;;21.89;96.98;98811.77;1703921;82;21015;-70
2021/07/19 00:29:17;;;;;;;29.00;14.15;;;;;;;21.85;97.22;98809.59;1701208;83;20955;-70
2021/07/19 00:31:43;;;;;;;24.82;13.88;;;;;;;21.83;97.43;98806.42;1701915;83;21054;-70
2021/07/19 00:34:11;;;;;;;25.08;14.73;;;;;;;21.79;97.44;98805.05;1661278;84;21499;-70
2021/07/19 00:36:37;;;;;;;22.77;14.35;;;;;;;21.78;97.69;98801.26;1681577;83;20987;-70
2021/07/19 00:39:08;;;;;;;27.25;13.95;;;;;;;21.74;97.75;98803.47;1705253;81;21136;-70
2021/07/19 00:41:38;;;;;;;27.07;15.40;;;;;;;21.74;97.88;98804.87;1692457;83;21016;-69
2021/07/19 00:44:07;;;;;;;22.30;12.88;;;;;;;21.72;97.99;98797.50;1710221;83;20903;-70
2021/07/19 00:46:34;;;;;;;28.12;14.25;;;;;;;21.72;98.00;98803.09;1689868;83;21931;-69
2021/07/19 00:49:00;;;;;;;23.55;14.07;;;;;;;21.71;98.00;98800.70;1681904;84;20976;-70
2021/07/19 00:51:27;;;;;;;20.82;13.55;;;;;;;21.70;98.05;98803.30;1682485;84;20912;-69
2021/07/19 00:53:56;;;;;;;24.98;13.88;;;;;;;21.66;97.99;98801.92;1659010;85;20976;-69
2021/07/19 00:56:22;;;;;;;29.85;14.33;;;;;;;21.62;98.28;98805.34;1662977;84;20941;-70
2021/07/19 00:58:51;;;;;;;28.83;14.23;;;;;;;21.59;98.50;98803.36;1697765;83;21918;-69
2021/07/19 01:01:18;;;;;;;24.10;13.70;;;;;;;21.57;98.59;98801.58;1699830;82;21025;-70
2021/07/19 01:03:48;;;;;;;23.75;14.43;;;;;;;21.55;98.66;98800.39;1704830;83;20955;-70
2021/07/19 01:06:16;;;;;;;25.48;14.38;;;;;;;21.52;98.74;98799.20;1707224;82;20934;-71
2021/07/19 01:08:44;;;;;;;26.73;14.50;;;;;;;21.51;99.00;98810.18;1706094;82;20946;-72
2021/07/19 01:11:13;;;;;;;26.82;14.35;;;;;;;21.51;99.26;98803.80;1690750;82;21545;-71
2021/07/19 01:13:40;;;;;;;26.17;15.20;;;;;;;21.50;99.42;98803.00;1686117;82;20982;-71
2021/07/19 01:16:07;;;;;;;21.85;13.68;;;;;;;21.50;99.33;98802.21;1696833;83;21002;-71
2021/07/19 01:18:35;;;;;;;22.77;13.78;;;;;;;21.49;99.34;98800.02;1685682;83;21027;-75
2021/07/19 01:21:18;;;;;;;25.23;13.75;;;;;;;21.47;99.31;98801.03;1683176;83;21518;-70
2021/07/19 01:23:58;;;;;;;26.05;13.93;;;;;;;21.47;99.34;98798.23;1703247;83;21191;-70
2021/07/19 01:26:49;;;;;;;26.27;14.10;;;;;;;21.45;99.30;98799.84;1701962;82;20859;-70
2021/07/19 01:29:18;;;;;;;23.65;14.80;;;;;;;21.42;99.30;98793.08;1700761;83;21169;-71
2021/07/19 01:31:46;;;;;;;29.35;14.28;;;;;;;21.40;99.53;98795.48;1663155;85;21031;-70
2021/07/19 01:34:17;;;;;;;29.60;14.25;;;;;;;21.39;99.60;98798.08;1638070;84;20980;-70
2021/07/19 01:36:57;;;;;;;29.80;13.87;;;;;;;21.37;99.58;98790.73;1691020;83;21211;-70
2021/07/19 01:39:27;;;;;;;27.87;14.10;;;;;;;21.37;99.54;98790.73;1690279;83;20954;-70
2021/07/19 01:41:55;;;;;;;24.37;14.13;;;;;;;21.34;99.50;98788.16;1698492;82;21588;-70
2021/07/19 01:44:23;;;;;;;29.35;14.13;;;;;;;21.30;99.45;98790.77;1677446;83;20921;-71
2021/07/19 01:46:49;;;;;;;31.73;15.63;;;;;;;21.28;99.67;98791.77;1686532;83;21419;-71
2021/07/19 01:49:18;;;;;;;24.65;14.68;;;;;;;21.28;100.00;98795.95;1706105;83;21155;-71
2021/07/19 01:51:46;;;;;;;23.67;14.13;;;;;;;21.30;100.00;98798.55;1694357;83;20908;-70
2021/07/19 01:54:13;;;;;;;28.55;15.18;;;;;;;21.29;100.00;98787.18;1686840;83;20978;-71
2021/07/19 01:56:41;;;;;;;25.23;14.90;;;;;;;21.28;100.00;98798.75;1701899;83;20914;-71
2021/07/19 01:59:07;;;;;;;25.82;13.70;;;;;;;21.24;100.00;98793.19;1700789;82;21051;-71
2021/07/19 02:01:36;;;;;;;27.93;14.20;;;;;;;21.23;100.00;98788.80;1691600;83;21503;-71
2021/07/19 02:04:03;;;;;;;24.35;13.28;;;;;;;21.23;100.00;98790.20;1694731;83;21429;-71
2021/07/19 02:06:30;;;;;;;27.52;13.13;;;;;;;21.23;100.00;98785.22;1696506;82;21551;-71
2021/07/19 02:09:03;;;;;;;25.02;14.07;;;;;;;21.23;100.00;98788.00;1694320;83;21453;-71
2021/07/19 02:11:31;;;;;;;33.85;15.05;;;;;;;21.24;100.00;98787.60;1682720;82;20973;-72
2021/07/19 02:13:58;;;;;;;21.12;13.88;;;;;;;21.24;100.00;98788.20;1702342;83;21813;-72
2021/07/19 02:16:28;;;;;;;21.07;12.95;;;;;;;21.24;100.00;98795.18;1702212;83;20903;-71
2021/07/19 02:18:55;;;;;;;22.48;13.20;;;;;;;21.22;100.00;98791.39;1693693;83;21086;-72
2021/07/19 02:21:24;;;;;;;25.95;14.13;;;;;;;21.24;100.00;98800.76;1656900;83;20931;-71
2021/07/19 02:23:59;;;;;;;22.90;13.83;;;;;;;21.23;100.00;98806.14;1695231;83;20990;-71
2021/07/19 02:26:33;;;;;;;20.68;13.38;;;;;;;21.21;100.00;98805.73;1686481;83;21648;-71
2021/07/19 02:28:59;;;;;;;22.75;14.13;;;;;;;21.20;100.00;98813.30;1698985;83;20911;-71
2021/07/19 02:31:27;;;;;;;19.90;13.05;;;;;;;21.20;100.00;98811.11;1698298;83;21110;-70
2021/07/19 02:33:54;;;;;;;22.42;13.43;;;;;;;21.20;100.00;98815.30;1691886;83;20984;-69
2021/07/19 02:36:22;;;;;;;23.07;15.38;;;;;;;21.19;100.00;98808.12;1690314;83;21444;-71
2021/07/19 02:38:52;;;;;;;28.65;15.45;;;;;;;21.20;100.00;98818.09;1658464;84;21968;-70
2021/07/19 02:41:25;;;;;;;26.02;15.28;;;;;;;21.21;100.00;98822.47;1688636;82;21066;-70
2021/07/19 02:43:56;;;;;;;27.73;15.03;;;;;;;21.23;100.00;98823.69;1706608;83;20987;-70
2021/07/19 02:46:25;;;;;;;25.45;16.20;;;;;;;21.26;100.00;98825.67;1697747;83;21019;-71
2021/07/19 02:48:54;;;;;;;27.32;19.25;;;;;;;21.30;100.00;98831.24;1693193;83;21027;-71
2021/07/19 02:51:22;;;;;;;30.02;18.85;;;;;;;21.35;100.00;98828.03;1695419;83;21584;-71
2021/07/19 02:53:50;;;;;;;35.13;20.10;;;;;;;21.43;100.00;98832.36;1707418;83;21557;-70
2021/07/19 02:56:19;;;;;;;30.70;20.15;;;;;;;21.50;100.00;98834.33;1660441;83;21051;-70
2021/07/19 02:58:46;;;;;;;30.27;20.60;;;;;;;21.57;100.00;98839.28;1689898;82;20959;-70
2021/07/19 03:01:18;;;;;;;28.65;20.23;;;;;;;21.61;100.00;98834.47;1698388;83;20914;-71
2021/07/19 03:03:46;;;;;;;33.92;22.00;;;;;;;21.70;100.00;98843.20;1697797;82;21080;-71
2021/07/19 03:06:18;;;;;;;31.57;20.72;;;;;;;21.78;100.00;98836.18;1704430;82;20870;-70
2021/07/19 03:08:46;;;;;;;35.90;23.22;;;;;;;21.81;100.00;98841.75;1690977;83;20851;-71
2021/07/19 03:11:19;;;;;;;33.92;22.05;;;;;;;21.88;100.00;98842.31;1700933;83;20914;-71
2021/07/19 03:13:57;;;;;;;36.05;22.10;;;;;;;21.92;100.00;98838.89;1694688;83;21128;-71
2021/07/19 03:16:26;;;;;;;27.02;20.37;;;;;;;21.95;100.00;98841.63;1682738;83;21534;-71
2021/07/19 03:18:54;;;;;;;32.90;21.70;;;;;;;22.01;100.00;98844.80;1665430;84;21015;-71
2021/07/19 03:21:21;;;;;;;38.45;21.27;;;;;;;22.04;100.00;98838.41;1701664;83;21530;-71
2021/07/19 03:23:49;;;;;;;39.48;21.52;;;;;;;22.11;100.00;98838.38;1698647;83;20902;-70
2021/07/19 03:26:19;;;;;;;34.25;21.87;;;;;;;22.15;100.00;98836.34;1683658;83;21463;-73
2021/07/19 03:28:44;;;;;;;31.25;22.27;;;;;;;22.21;100.00;98838.10;1699485;82;21139;-72
2021/07/19 03:31:11;;;;;;;33.73;20.92;;;;;;;22.26;100.00;98837.06;1695475;83;21540;-71
2021/07/19 03:33:43;;;;;;;30.20;19.82;;;;;;;22.33;100.00;98842.59;1696563;83;20967;-70
2021/07/19 03:36:10;;;;;;;24.95;18.40;;;;;;;22.42;100.00;98832.34;1688095;83;20961;-71
2021/07/19 03:38:37;;;;;;;32.05;19.30;;;;;;;22.55;100.00;98828.41;1692888;83;21791;-70
2021/07/19 03:41:23;;;;;;;23.25;17.32;;;;;;;22.68;100.00;98837.88;1701850;82;21549;-70
2021/07/19 03:43:52;;;;;;;25.52;18.67;;;;;;;22.78;100.00;98834.19;1684617;83;20968;-70
2021/07/19 03:46:22;;;;;;;27.58;17.40;;;;;;;22.83;100.00;98829.58;1686357;83;21059;-70
2021/07/19 03:48:48;;;;;;;30.43;16.57;;;;;;;22.88;100.00;98833.92;1674002;83;20969;-71
2021/07/19 03:51:15;;;;;;;28.07;18.00;;;;;;;22.95;100.00;98840.86;1705052;83;20910;-69
2021/07/19 03:53:43;;;;;;;28.77;18.07;;;;;;;23.00;100.00;98839.80;1692389;83;21057;-70
2021/07/19 03:56:10;;;;;;;31.40;17.82;;;;;;;23.12;100.00;98837.04;1663470;84;21117;-70
2021/07/19 03:58:37;;;;;;;26.55;18.12;;;;;;;23.24;100.00;98837.91;1699569;83;21074;-69
2021/07/19 04:01:04;;;;;;;23.20;17.62;;;;;;;23.39;100.00;98837.13;1687064;83;20969;-69
2021/07/19 04:03:46;;;;;;;26.80;18.75;;;;;;;23.51;99.13;98836.58;1688943;83;20941;-69
2021/07/19 04:06:05;;;;;;;27.35;18.73;;;;;;;23.66;97.84;98833.81;1658822;84;21751;-70
2021/07/19 04:08:36;;;;;;;32.23;19.50;;;;;;;23.80;96.80;98834.80;1706713;83;21429;-70
2021/07/19 04:11:03;;;;;;;29.72;19.05;;;;;;;23.88;96.28;98834.89;1701929;82;20839;-70
2021/07/19 04:13:32;;;;;;;26.85;19.40;;;;;;;23.96;96.00;98831.56;1679509;84;21066;-70
2021/07/19 04:16:00;;;;;;;29.95;19.87;;;;;;;24.03;94.52;98845.48;1688727;83;20936;-70
2021/07/19 04:18:27;;;;;;;26.90;20.02;;;;;;;24.10;93.34;98838.18;1695927;83;22131;-70
2021/07/19 04:20:55;;;;;;;38.65;20.25;;;;;;;24.16;92.55;98837.89;1720852;82;20862;-70
2021/07/19 04:23:23;;;;;;;43.23;20.35;;;;;;;24.19;92.07;98842.04;1702821;83;20913;-70
2021/07/19 04:25:53;;;;;;;33.38;20.23;;;;;;;24.22;91.09;98844.60;1658466;85;21031;-70
2021/07/19 04:28:21;;;;;;;32.98;21.30;;;;;;;24.30;90.49;98841.27;1673029;84;20988;-70
2021/07/19 04:30:50;;;;;;;30.02;19.70;;;;;;;24.36;89.52;98840.17;1635456;86;21183;-69
2021/07/19 04:33:18;;;;;;;32.93;21.35;;;;;;;24.44;89.28;98849.27;1705662;82;21085;-70
2021/07/19 04:35:46;;;;;;;29.42;20.32;;;;;;;24.53;88.44;98840.50;1689899;83;21423;-70
2021/07/19 04:38:19;;;;;;;32.23;21.37;;;;;;;24.59;87.76;98840.19;1689256;83;20990;-69
2021/07/19 04:40:55;;;;;;;27.48;21.45;;;;;;;24.64;87.02;98842.52;1701303;83;20878;-69
2021/07/19 04:43:23;;;;;;;32.40;21.48;;;;;;;24.69;86.38;98842.63;1713402;83;21139;-69
2021/07/19 04:45:50;;;;;;;41.37;21.90;;;;;;;24.75;86.17;98838.12;1699470;83;21583;-70
2021/07/19 04:48:17;;;;;;;33.15;21.48;;;;;;;24.80;85.55;98836.22;1688828;83;21007;-69
2021/07/19 04:50:45;;;;;;;33.08;21.60;;;;;;;24.85;85.35;98832.09;1688317;82;21210;-69
2021/07/19 04:53:12;;;;;;;35.80;21.70;;;;;;;24.86;85.22;98833.08;1704045;83;20921;-71
2021/07/19 04:55:40;;;;;;;35.40;21.73;;;;;;;24.88;85.20;98829.23;1700191;83;21132;-70
2021/07/19 04:58:06;;;;;;;37.23;21.60;;;;;;;24.95;85.23;98829.70;1684821;83;21039;-69
2021/07/19 05:00:34;;;;;;;36.35;22.60;;;;;;;25.03;84.25;98820.57;1713338;83;20879;-69
2021/07/19 05:03:01;;;;;;;33.73;22.35;;;;;;;25.06;83.66;98821.91;1706369;83;20965;-68
2021/07/19 05:05:28;;;;;;;33.58;22.50;;;;;;;25.08;83.72;98822.88;1711542;83;21039;-69
2021/07/19 05:07:55;;;;;;;32.30;20.32;;;;;;;25.08;83.82;98825.08;1692376;83;21973;-71
2021/07/19 05:10:23;;;;;;;33.90;22.22;;;;;;;25.13;83.20;98817.55;1683161;83;20909;-70
2021/07/19 05:12:51;;;;;;;33.80;21.77;;;;;;;25.21;83.42;98825.23;1704098;83;20968;-70
2021/07/19 05:15:19;;;;;;;34.25;20.85;;;;;;;25.30;83.27;98825.45;1706559;83;21029;-70
2021/07/19 05:17:48;;;;;;;33.15;20.08;;;;;;;25.41;83.14;98826.03;1701621;83;20958;-70
2021/07/19 05:20:17;;;;;;;27.22;19.75;;;;;;;25.56;82.90;98827.28;1694370;83;20966;-70
2021/07/19 05:22:52;;;;;;;36.08;19.80;;;;;;;25.71;82.73;98825.61;1688383;83;21547;-71
2021/07/19 05:25:27;;;;;;;29.15;19.55;;;;;;;25.83;82.32;98829.95;1695967;83;21492;-70
2021/07/19 05:28:11;;;;;;;31.68;19.15;;;;;;;25.96;81.07;98824.44;1702350;83;20941;-72
2021/07/19 05:30:42;;;;;;;28.73;18.82;;;;;;;26.08;80.27;98823.72;1713937;83;20965;-70
2021/07/19 05:33:09;;;;;;;29.13;20.47;;;;;;;26.19;79.59;98822.86;1711292;83;21150;-70
2021/07/19 05:35:36;;;;;;;30.45;18.98;;;;;;;26.28;79.29;98824.45;1702935;83;21474;-71
2021/07/19 05:38:03;;;;;;;35.58;19.52;;;;;;;26.37;78.69;98830.11;1691682;83;20916;-70
2021/07/19 05:40:31;;;;;;;34.18;19.00;;;;;;;26.45;79.02;98826.69;1698909;83;21566;-71
2021/07/19 05:43:00;;;;;;;36.00;19.70;;;;;;;26.54;78.45;98829.67;1701341;83;21469;-70
2021/07/19 05:45:27;;;;;;;29.35;19.10;;;;;;;26.65;78.42;98832.19;1712207;83;21153;-71
2021/07/19 05:47:54;;;;;;;21.23;16.40;;;;;;;26.75;77.25;98831.73;1697533;83;20990;-71
2021/07/19 05:50:20;;;;;;;29.55;17.25;;;;;;;26.86;77.05;98824.59;1708071;82;20970;-81
2021/07/19 05:52:47;;;;;;;26.50;16.97;;;;;;;26.96;76.37;98822.75;1719027;83;20934;-83
2021/07/19 05:55:14;;;;;;;25.10;17.42;;;;;;;27.04;75.86;98821.94;1704512;82;21479;-77
2021/07/19 05:57:40;;;;;;;29.12;18.95;;;;;;;27.11;76.01;98818.93;1686578;82;21122;-78
2021/07/19 06:00:13;;;;;;;29.60;19.10;;;;;;;27.21;75.46;98820.63;1717138;83;20922;-78
2021/07/19 06:02:43;;;;;;;32.75;18.40;;;;;;;27.30;75.49;98822.19;1719063;83;20929;-76
2021/07/19 06:05:11;;;;;;;29.15;17.50;;;;;;;27.43;75.06;98828.65;1691881;83;21484;-70
2021/07/19 06:07:38;;;;;;;27.20;18.98;;;;;;;27.56;74.33;98837.93;1701875;82;20909;-72
2021/07/19 06:10:07;;;;;;;38.35;18.60;;;;;;;27.69;74.16;98839.41;1704473;82;21547;-78
2021/07/19 06:12:34;;;;;;;27.50;18.55;;;;;;;27.85;73.79;98842.72;1696526;83;20944;-77
2021/07/19 06:15:05;;;;;;;28.32;18.20;;;;;;;28.00;73.79;98838.85;1701027;83;20962;-88
2021/07/19 06:17:33;;;;;;;27.95;17.07;;;;;;;28.12;72.83;98847.94;1713353;83;20858;-80
2021/07/19 06:20:00;;;;;;;29.00;16.70;;;;;;;28.20;71.66;98845.85;1691730;83;21536;-80
2021/07/19 06:22:27;;;;;;;27.77;16.55;;;;;;;28.26;71.25;98840.47;1704697;83;21173;-77
2021/07/19 06:24:54;;;;;;;24.10;16.65;;;;;;;28.25;70.44;98848.77;1697896;83;20967;-75
2021/07/19 06:27:20;;;;;;;33.30;18.40;;;;;;;28.26;70.47;98851.75;1718309;82;20945;-76
2021/07/19 06:29:49;;;;;;;32.80;19.07;;;;;;;28.33;70.38;98847.89;1698613;82;21035;-79
2021/07/19 06:32:15;;;;;;;24.50;16.05;;;;;;;28.44;69.99;98853.97;1694283;83;20954;-71
2021/07/19 06:34:41;;;;;;;29.07;16.20;;;;;;;28.55;68.83;98852.38;1697509;83;21145;-71
2021/07/19 06:37:09;;;;;;;20.90;15.55;;;;;;;28.59;68.16;98847.41;1693795;83;20906;-70
2021/07/19 06:39:35;;;;;;;25.25;16.10;;;;;;;28.63;68.60;98845.88;1700863;82;21031;-70
2021/07/19 06:42:02;;;;;;;25.88;16.85;;;;;;;28.69;69.02;98853.15;1696399;82;20959;-71
2021/07/19 06:44:29;;;;;;;22.98;14.85;;;;;;;28.79;68.45;98847.14;1688715;83;20923;-73
2021/07/19 06:46:59;;;;;;;24.95;15.75;;;;;;;28.98;67.96;98848.11;1708837;82;21092;-78
2021/07/19 06:49:25;;;;;;;21.45;14.38;;;;;;;29.13;66.97;98844.95;1698338;82;20864;-72
2021/07/19 06:51:52;;;;;;;31.77;16.60;;;;;;;29.24;65.46;98844.56;1734183;80;20951;-72
2021/07/19 06:54:19;;;;;;;24.57;18.12;;;;;;;29.33;65.87;98842.43;1716470;81;20970;-75
2021/07/19 06:56:46;;;;;;;25.97;18.00;;;;;;;29.36;65.46;98838.06;1730048;81;20999;-80
2021/07/19 06:59:13;;;;;;;29.25;17.82;;;;;;;29.39;66.25;98832.91;1723310;82;22123;-73
2021/07/19 07:01:40;;;;;;;26.35;17.12;;;;;;;29.50;66.41;98831.09;1730867;81;21310;-72
2021/07/19 07:04:07;;;;;;;30.72;17.25;;;;;;;29.64;66.38;98832.59;1739224;81;20947;-74
2021/07/19 07:06:34;;;;;;;26.50;17.32;;;;;;;29.78;65.50;98832.84;1718342;81;21133;-74
2021/07/19 07:09:02;;;;;;;24.92;16.37;;;;;;;29.89;65.15;98836.05;1719460;82;20927;-74
2021/07/19 07:11:29;;;;;;;23.90;16.82;;;;;;;30.02;64.07;98831.73;1722952;82;21102;-77
2021/07/19 07:13:57;;;;;;;22.50;15.75;;;;;;;30.14;63.97;98825.79;1711059;82;20928;-87
2021/07/19 07:16:25;;;;;;;23.40;16.70;;;;;;;30.31;63.00;98831.98;1722965;81;21415;-83
2021/07/19 07:18:51;;;;;;;23.87;15.90;;;;;;;30.51;60.90;98831.73;1717101;81;21169;-84
2021/07/19 07:21:18;;;;;;;22.52;14.50;;;;;;;30.74;61.73;98835.25;1713396;82;21490;-80
2021/07/19 07:23:45;;;;;;;24.02;15.68;;;;;;;30.99;60.32;98831.34;1720335;81;21550;-81
2021/07/19 07:26:11;;;;;;;22.20;14.85;;;;;;;31.09;57.68;98825.20;1719006;81;21010;-71
2021/07/19 07:28:38;;;;;;;20.45;14.53;;;;;;;31.01;58.54;98834.49;1710184;83;20878;-71
2021/07/19 07:31:04;;;;;;;18.67;13.90;;;;;;;30.85;57.87;98846.28;1748215;81;20948;-72
2021/07/19 07:33:31;;;;;;;23.95;15.55;;;;;;;30.67;58.06;98841.21;1741264;81;20987;-70
2021/07/19 08:40:21;;;;;;;12.82;10.10;;;;;;;19.45;100.00;99013.53;1599372;88;20932;-84
2021/07/19 08:42:48;;;;;;;12.05;9.83;;;;;;;19.53;100.00;98999.10;1595393;88;20987;-85
2021/07/19 08:45:15;;;;;;;15.93;10.70;;;;;;;19.59;100.00;98965.53;1607085;89;20983;-85
2021/07/19 08:47:45;;;;;;;17.25;11.00;;;;;;;19.69;100.00;98941.09;1606846;89;20987;-85
2021/07/19 08:50:13;;;;;;;22.40;11.40;;;;;;;19.81;100.00;98935.77;1607045;89;20923;-83
2021/07/19 08:52:40;;;;;;;14.93;11.80;;;;;;;19.86;100.00;98938.17;1606856;89;21105;-84
2021/07/19 08:55:10;;;;;;;17.17;12.35;;;;;;;19.97;100.00;98957.13;1606753;89;21047;-83
2021/07/19 08:57:40;;;;;;;20.85;13.28;;;;;;;20.10;100.00;98961.14;1607014;89;21473;-82
2021/07/19 09:00:09;;;;;;;24.02;13.85;;;;;;;20.20;100.00;98971.53;1606715;89;21023;-83
2021/07/19 09:02:35;;;;;;;19.02;13.00;;;;;;;20.25;100.00;98952.20;1606959;89;20986;-82
2021/07/19 09:05:02;;;;;;;21.95;14.43;;;;;;;20.35;100.00;98953.62;1606899;89;21120;-84
2021/07/19 09:07:30;;;;;;;22.85;14.05;;;;;;;20.47;100.00;98944.71;1606743;89;21434;-82
2021/07/19 09:09:56;;;;;;;21.45;13.53;;;;;;;20.62;100.00;98933.77;1583445;89;20987;-82
2021/07/19 09:12:33;;;;;;;22.95;14.18;;;;;;;20.75;100.00;98936.38;1605962;89;21050;-84
2021/07/19 09:15:08;;;;;;;22.07;13.43;;;;;;;20.88;100.00;98932.55;1606863;89;20920;-80
2021/07/19 09:17:34;;;;;;;22.55;13.00;;;;;;;20.97;100.00;98917.00;1606838;89;21077;-83
2021/07/19 09:20:04;;;;;;;19.55;12.98;;;;;;;21.05;100.00;98911.61;1606736;89;21438;-81
2021/07/19 09:22:33;;;;;;;22.15;11.90;;;;;;;21.14;100.00;98916.78;1606983;89;20943;-82
2021/07/19 09:25:16;;;;;;;16.70;11.70;;;;;;;21.16;100.00;98924.75;1607241;89;20903;-82
2021/07/19 09:28:07;;;;;;;18.32;9.95;;;;;;;21.19;100.00;98936.52;1606938;89;20971;-81
2021/07/19 09:30:38;;;;;;;20.52;11.38;;;;;;;21.28;100.00;98950.28;1606502;89;22187;-83
2021/07/19 09:33:10;;;;;;;19.10;11.60;;;;;;;21.33;100.00;98951.27;1599032;89;21033;-81
2021/07/19 09:35:42;;;;;;;19.42;11.75;;;;;;;21.33;100.00;98958.85;1600794;89;21116;-82
2021/07/19 09:38:13;;;;;;;26.00;13.18;;;;;;;21.27;100.00;98946.50;1604630;87;21336;-81
2021/07/19 09:40:44;;;;;;;14.98;11.85;;;;;;;21.28;100.00;98950.28;1604290;89;21553;-82
2021/07/19 09:43:26;;;;;;;22.25;13.58;;;;;;;21.38;100.00;98956.41;1603604;89;21162;-82
2021/07/19 09:46:09;;;;;;;21.70;13.03;;;;;;;21.48;100.00;98984.12;1604609;89;21135;-82
2021/07/19 09:48:38;;;;;;;;;;;;;;;21.49;100.00;99030.39;1607062;89;20983;-81
2021/07/19 09:51:04;;;;;;;22.02;12.23;;;;;;;21.41;100.00;99054.73;1605697;87;20683;-81
2021/07/19 09:53:41;;;;;;;25.65;13.85;;;;;;;21.32;100.00;99065.53;1627719;86;20993;-82
2021/07/19 09:56:15;;;;;;;17.87;11.75;;;;;;;21.23;100.00;99074.11;1614294;87;21572;-81
2021/07/19 09:58:47;;;;;;;22.60;11.70;;;;;;;21.16;100.00;99087.42;1620279;87;20918;-81
2021/07/19 10:01:31;;;;;;;17.40;12.73;;;;;;;21.12;100.00;99051.73;1620442;87;21120;-80
2021/07/19 10:04:08;;;;;;;22.27;13.83;;;;;;;21.20;100.00;98988.34;1611979;87;21041;-79
2021/07/19 10:06:35;;;;;;;22.87;12.88;;;;;;;21.29;100.00;98983.18;1605474;87;21158;-81
2021/07/19 10:09:05;;;;;;;22.42;12.73;;;;;;;21.35;100.00;98976.79;1604844;89;21176;-82
2021/07/19 10:11:34;;;;;;;19.67;11.90;;;;;;;21.39;100.00;98970.57;1607125;88;21023;-81
2021/07/19 10:14:01;;;;;;;23.27;11.85;;;;;;;21.49;100.00;98973.14;1604929;89;21454;-80
2021/07/19 10:16:31;;;;;;;21.25;13.43;;;;;;;21.58;100.00;98964.34;1604566;89;21094;-81
2021/07/19 10:19:00;;;;;;;21.60;12.82;;;;;;;21.70;100.00;98968.10;1605132;88;21031;-81
2021/07/19 10:21:29;;;;;;;24.47;11.97;;;;;;;21.82;100.00;98962.67;1608393;89;21128;-82
2021/07/19 10:24:06;;;;;;;23.85;11.75;;;;;;;21.93;100.00;98948.86;1608993;87;21002;-84
2021/07/19 10:26:33;;;;;;;21.27;11.10;;;;;;;22.02;100.00;98938.64;1607607;87;20954;-83
2021/07/19 10:29:00;;;;;;;20.70;11.93;;;;;;;22.08;100.00;98928.63;1606453;89;21087;-84
2021/07/19 10:31:27;;;;;;;26.65;11.80;;;;;;;22.19;100.00;98916.78;1607227;89;20955;-83
2021/07/19 10:33:56;;;;;;;18.95;11.05;;;;;;;22.23;100.00;98902.19;1619930;86;21160;-81
2021/07/19 10:36:30;;;;;;;19.70;13.00;;;;;;;22.31;100.00;98885.55;1583074;89;20925;-80
2021/07/19 10:39:00;;;;;;;19.07;12.03;;;;;;;22.40;100.00;98876.10;1618148;86;21015;-84
2021/07/19 10:41:27;;;;;;;18.87;10.90;;;;;;;22.48;100.00;98870.45;1620222;87;21033;-80
2021/07/19 10:44:06;;;;;;;20.95;11.00;;;;;;;22.55;100.00;98866.17;1617598;87;21053;-82
2021/07/19 10:46:33;;;;;;;15.18;9.80;;;;;;;22.66;100.00;98876.06;1619524;87;21490;-84
2021/07/19 10:49:07;;;;;;;21.55;11.50;;;;;;;22.79;100.00;98866.59;1615443;87;20985;-82
2021/07/19 10:51:45;;;;;;;17.35;10.30;;;;;;;22.88;100.00;98871.10;1617200;87;21582;-82
2021/07/19 10:54:18;;;;;;;14.95;10.28;;;;;;;22.99;100.00;98893.39;1617830;87;21007;-82
2021/07/19 10:56:46;;;;;;;16.52;10.32;;;;;;;23.11;100.00;98892.08;1617212;87;21088;-82
2021/07/19 10:59:30;;;;;;;17.20;10.05;;;;;;;23.21;100.00;98907.34;1620469;87;21100;-83
2021/07/19 11:01:58;;;;;;;20.12;9.93;;;;;;;23.29;100.00;98909.45;1594899;87;21125;-82
2021/07/19 11:04:25;;;;;;;15.30;10.18;;;;;;;23.46;100.00;98923.88;1613071;87;21071;-82
2021/07/19 11:06:58;;;;;;;16.40;9.93;;;;;;;23.65;100.00;98928.09;1617050;86;20991;-82
2021/07/19 11:09:39;;;;;;;17.40;10.15;;;;;;;23.77;100.00;98924.72;1620540;86;21033;-80
2021/07/19 11:12:12;;;;;;;16.93;9.55;;;;;;;23.85;100.00;98918.41;1606048;86;21775;-82
2021/07/19 11:14:51;;;;;;;17.85;9.13;;;;;;;24.00;100.00;98921.22;1606218;88;21549;-83
2021/07/19 11:17:19;;;;;;;15.88;9.80;;;;;;;24.13;100.00;98914.44;1607663;88;20983;-83
2021/07/19 11:19:54;;;;;;;17.57;9.58;;;;;;;24.26;100.00;98939.33;1646318;86;47344;-83
2021/07/19 11:22:23;;;;;;;15.75;8.68;;;;;;;24.52;100.00;98960.95;1638880;85;20910;-83
2021/07/19 11:24:57;;;;;;;11.38;9.00;;;;;;;24.77;100.00;98964.78;1635791;86;20939;-87
2021/07/19 11:27:33;;;;;;;16.97;8.58;;;;;;;24.91;100.00;98974.96;1645352;86;20908;-88
2021/07/19 11:30:13;;;;;;;16.62;8.70;;;;;;;25.01;100.00;98976.83;1641216;86;20872;-86
2021/07/19 11:32:40;;;;;;;12.35;6.95;;;;;;;25.08;100.00;98984.34;1638954;86;21066;-89
2021/07/19 11:35:15;;;;;;;12.70;8.68;;;;;;;25.13;100.00;98984.66;1638467;86;21011;-86
2021/07/19 11:37:46;;;;;;;9.60;7.10;;;;;;;25.16;100.00;98971.16;1635713;87;21502;-81
2021/07/19 11:40:17;;;;;;;11.95;7.87;;;;;;;25.21;100.00;98960.84;1635990;86;21422;-83
2021/07/19 11:42:44;;;;;;;14.00;8.20;;;;;;;25.35;100.00;98959.80;1634669;87;20935;-78
2021/07/19 11:45:16;;;;;;;16.65;7.83;;;;;;;25.49;100.00;98953.09;1645115;85;21070;-86
2021/07/19 11:47:53;;;;;;;14.98;7.70;;;;;;;25.58;100.00;98956.13;1593554;89;20923;-82
2021/07/19 11:50:24;;;;;;;12.55;7.42;;;;;;;25.69;100.00;98958.14;1612418;87;22450;-84
2021/07/19 11:52:55;;;;;;;17.82;8.05;;;;;;;25.86;100.00;98962.63;1604756;89;20894;-82
2021/07/19 11:55:24;;;;;;;12.73;7.53;;;;;;;25.99;100.00;98974.80;1611908;87;21029;-75
2021/07/19 11:58:00;;;;;;;10.98;8.03;;;;;;;26.14;100.00;98980.10;1614341;87;20997;-81
2021/07/19 12:00:38;;;;;;;14.25;9.08;;;;;;;26.27;100.00;98979.63;1615834;88;20996;-79
2021/07/19 12:03:15;;;;;;;15.45;8.23;;;;;;;26.34;100.00;98978.70;1616074;87;21181;-85
2021/07/19 12:05:52;;;;;;;12.47;8.65;;;;;;;26.45;100.00;98978.64;1613188;87;21592;-81
2021/07/19 12:08:31;;;;;;;10.88;7.72;;;;;;;26.57;100.00;98982.80;1605486;89;20968;-81
2021/07/19 12:11:06;;;;;;;19.05;9.48;;;;;;;26.47;100.00;98979.00;1608985;87;21019;-81
2021/07/19 12:13:41;;;;;;;13.15;8.90;;;;;;;26.30;100.00;98970.31;1609939;87;21009;-81
2021/07/19 12:16:09;;;;;;;11.15;7.42;;;;;;;26.11;100.00;98962.69;1604768;89;21500;-82
2021/07/19 12:18:38;;;;;;;14.15;9.30;;;;;;;26.09;100.00;98951.88;1605098;89;21562;-80
2021/07/19 12:21:09;;;;;;;14.40;8.93;;;;;;;26.16;100.00;98941.87;1604325;87;21519;-79
2021/07/19 12:23:50;;;;;;;12.70;8.73;;;;;;;26.33;100.00;98941.95;1604439;86;21513;-81
2021/07/19 12:26:37;;;;;;;13.60;8.83;;;;;;;26.60;100.00;98936.86;1623340;86;21157;-82
2021/07/19 12:29:09;;;;;;;11.78;7.90;;;;;;;26.91;100.00;98916.98;1616100;87;21166;-79
2021/07/19 12:31:40;;;;;;;17.12;7.35;;;;;;;26.95;99.20;98918.30;1628315;88;21080;-85